Valley Peak, Santa Cruz Island Reserve, California Weather observations

Data are for 10 minute period ending at time listed.
 Day   Time   Solar   Ave.   Ave.  Ave.  Vector  Max.   Baro.   Total    
  of    of     Rad.   Air    Rel.  Wind   Wind   Wind  Press.  Precip.   
Year   Day            Temp.  Hum.  Speed  Dir.   Gust                    
2014   (PST)  Kw/m2    F      %     mph   deg.    mph    mb.     in.     
-------------------------------------------------------------------------
 244    5:50   0.00   63.5    98    3.9   118     8.6   961.3    0.00 
 244    6:00   0.01   63.6    98    4.0   123     8.4   961.4    0.00 
 244    6:10   0.02   63.7    98    3.3   122     7.7   961.4    0.00 
 244    6:20   0.02   63.9    98    3.3   117     6.8   961.5    0.00 
 244    6:30   0.03   64.0    98    3.6   124     8.1   961.5    0.00 
 244    6:40   0.05   64.1    98    4.0   124     8.0   961.5    0.00 
 244    6:50   0.05   64.3    97    3.3   120     6.0   961.5    0.00 
 244    7:00   0.06   64.5    96    4.4   118     8.8   961.6    0.00 
 244    7:10   0.06   64.8    96    3.6   113     6.4   961.6    0.00 
 244    7:20   0.08   65.2    94    4.5   103     9.3   961.6    0.00 
 244    7:30   0.09   65.5    92    3.0   121     7.5   961.6    0.00 
 244    7:40   0.09   66.0    92    2.3   127     6.3   961.7    0.00 
 244    7:50   0.11   66.1    90    3.2   124     6.6   961.7    0.00 
 244    8:00   0.15   66.7    89    2.6   123     4.7   961.8    0.00 
 244    8:10   0.19   67.4    87    1.1    81     3.1   961.8    0.00 
 244    8:20   0.28   68.5    84    1.6    64     4.7   961.8    0.00 
 244    8:30   0.39   69.4    80    1.6    64     4.8   961.9    0.00 
 244    8:40   0.63   70.7    76    1.5    33     3.9   961.9    0.00 
 244    8:50   0.61   71.6    74    1.8    67     5.3   961.9    0.00 
 244    9:00   0.65   72.9    70    2.1    69     4.1   961.9    0.00 
 244    9:10   0.67   73.3    68    1.3    34     5.6   961.9    0.00 
 244    9:20   0.70   72.8    70    2.3    86     7.0   961.8    0.00 
 244    9:30   0.72   75.0    67    3.0   121     7.1   962.0    0.00 
 244    9:40   0.74   76.8    64    3.1   120     6.4   962.0    0.00 
 244    9:50   0.77   76.3    65    2.4   123     5.7   962.0    0.00 
 244   10:00   0.79   76.9    63    3.8   120     7.7   962.0    0.00 
 244   10:10   0.81   77.4    63    3.3   126     8.0   962.1    0.00 
 244   10:20   0.83   78.3    61    3.9   130     8.6   962.1    0.00 
 244   10:30   0.84   78.5    61    3.5   135     8.4   962.1    0.00 
 244   10:40   0.86   78.7    60    3.7   139     8.4   962.2    0.00 
 244   10:50   0.87   78.9    60    3.0   126     6.0   962.3    0.00 
 244   11:00   0.88   80.7    56    3.5   124     7.6   962.3    0.00 
 244   11:10   0.89   80.8    55    3.3   100     7.8   962.3    0.00 
 244   11:20   0.90   81.1    56    3.4   127     7.2   962.3    0.00 
 244   11:30   0.90   80.9    56    3.8   109     8.2   962.2    0.00 
 244   11:40   0.90   80.8    54    3.4    62     6.1   962.1    0.00 
 244   11:50   0.90   80.2    54    2.7    56     5.4   961.9    0.00 
 244   12:00   0.91   80.1    54    1.9    38     4.6   961.8    0.00 
 244   12:10   0.90   78.2    57    3.9    43     6.6   961.8    0.00 
 244   12:20   0.90   78.7    57    4.1    49     7.3   961.8    0.00 
 244   12:30   0.90   80.2    55    3.5    51     6.2   961.8    0.00 
 244   12:40   0.89   81.6    52    3.6    50     6.8   961.8    0.00 
 244   12:50   0.88   80.5    54    3.9    49     7.0   961.8    0.00 
 244   13:00   0.87   79.9    55    3.9    51     6.4   961.8    0.00 
 244   13:10   0.86   81.8    52    3.8    54     5.8   961.8    0.00 
 244   13:20   0.84   81.9    52    4.0    49     7.5   961.7    0.00 
 244   13:30   0.83   81.5    52    4.7    38     7.7   961.6    0.00 
 244   13:40   0.81   79.1    55    5.6    37     8.6   961.5    0.00 
 244   13:50   0.80   78.1    56    6.5    35     9.6   961.4    0.00 
 244   14:00   0.77   77.0    57    6.6    33    10.1   961.2    0.00 
 244   14:10   0.75   76.9    58    7.3    32    11.0   961.1    0.00 
 244   14:20   0.73   76.3    58    7.3    31    11.1   961.1    0.00 
 244   14:30   0.70   76.3    57    7.8    34    11.1   961.0    0.00 
 244   14:40   0.67   75.5    59    6.7    32    10.4   961.0    0.00 
 244   14:50   0.65   75.9    58    6.7    29     9.1   960.9    0.00 
 244   15:00   0.62   75.1    59    6.4    21     8.4   960.7    0.00 
 244   15:10   0.59   75.5    59    5.8    31     7.5   960.7    0.00 
 244   15:20   0.56   76.8    57    5.3    33     6.6   960.7    0.00 
 244   15:30   0.52   77.8    55    4.5    39     5.6   960.7    0.00 
 244   15:40   0.49   78.7    54    4.8    37     5.8   960.7    0.00 
 244   15:50   0.46   79.6    53    4.2    34     5.0   960.7    0.00 
 244   16:00   0.42   79.3    54    4.4    26     5.6   960.7    0.00 
 244   16:10   0.39   77.9    56    4.5    17     5.6   960.7    0.00 
 244   16:20   0.35   75.9    59    4.0    12     6.3   960.6    0.00 
 244   16:30   0.32   76.9    57    4.2    21     5.6   960.5    0.00 
 244   16:40   0.28   77.9    56    5.0    30     5.8   960.4    0.00 
 244   16:50   0.25   76.2    58    5.3    22     6.1   960.3    0.00 
 244   17:00   0.22   73.8    62    5.2     8     6.4   960.1    0.00 
 244   17:10   0.18   72.6    64    5.1     2     6.4   960.1    0.00 
 244   17:20   0.15   72.2    64    4.5   349     6.1   959.9    0.00 
 244   17:30   0.12   72.2    64    5.1   350     7.0   959.8    0.00 
 244   17:40   0.09   71.5    66    5.7   350     7.7   959.7    0.00 
 244   17:50   0.07   70.2    68    7.6   354     9.5   959.5    0.00 
 244   18:00   0.04   69.3    70    8.3     1     9.3   959.4    0.00 
 244   18:10   0.02   69.1    71    8.4   360     9.9   959.4    0.00 
 244   18:20   0.00   68.5    72    9.5   358    11.4   959.4    0.00 
 244   18:30   0.00   68.3    71   10.3   351    11.5   959.4    0.00 
 244   18:40   0.00   68.0    72   10.3   354    11.8   959.5    0.00 
 244   18:50   0.00   68.1    71   10.1   350    11.7   959.7    0.00 
 244   19:00   0.00   68.6    70   10.4   348    11.5   959.8    0.00 
 244   19:10   0.00   69.0    69   10.4   351    11.7   959.9    0.00 
 244   19:20   0.00   68.9    69   10.2   355    11.1   960.0    0.00 
 244   19:30   0.00   68.9    68   10.0   355    10.9   960.1    0.00 
 244   19:40   0.00   69.2    67    9.8   354    11.0   960.2    0.00 
 244   19:50   0.00   69.3    67    9.3   353    10.4   960.4    0.00 
 244   20:00   0.00   69.6    65    8.7   355     9.3   960.5    0.00 
 244   20:10   0.00   69.6    63    8.7   358     9.8   960.6    0.00 
 244   20:20   0.00   69.6    63    9.2   360     9.8   960.6    0.00 
 244   20:30   0.00   69.8    60    7.8     7     9.0   960.7    0.00 
 244   20:40   0.00   70.0    58    6.7     8     7.4   960.7    0.00 
 244   20:50   0.00   69.9    60    5.6     8     6.3   960.8    0.00 
 244   21:00   0.00   69.9    60    4.1    15     5.3   960.8    0.00 
 244   21:10   0.00   69.8    61    3.1    28     3.4   960.8    0.00 
 244   21:20   0.00   69.8    60    3.5    25     4.7   960.8    0.00 
 244   21:30   0.00   69.5    59    3.4    36     4.2   960.9    0.00 
 244   21:40   0.00   69.0    61    3.1    45     3.6   960.9    0.00 
 244   21:50   0.00   67.9    72    2.8    82     4.5   961.0    0.00 
 244   22:00   0.00   67.3    70    3.4    76     5.1   961.0    0.00 
 244   22:10   0.00   66.7    75    4.9   108     5.8   961.0    0.00 
 244   22:20   0.00   66.7    74    5.7   114     7.2   961.0    0.00 
 244   22:30   0.00   66.3    73    6.0   110     6.9   960.9    0.00 
 244   22:40   0.00   66.1    72    4.4    98     6.4   961.0    0.00 
 244   22:50   0.00   65.8    72    4.0    94     5.5   961.0    0.00 
 244   23:00   0.00   65.4    72    3.6    96     5.3   961.0    0.00 
 244   23:10   0.00   65.4    72    5.9   120     7.2   961.0    0.00 
 244   23:20   0.00   65.2    74    6.2   122     6.9   961.0    0.00 
 244   23:30   0.00   65.3    74    4.8   119     6.1   960.9    0.00 
 244   23:40   0.00   65.4    74    4.6   110     5.4   960.9    0.00 
 244   23:50   0.00   65.0    74    4.6   100     6.0   960.9    0.00 
 245    0:00   0.00   64.8    76    5.3   108     6.3   960.9    0.00 
 245    0:10   0.00   64.5    83    5.3   118     6.8   961.0    0.00 
 245    0:20   0.00   63.0    94    5.1   115     6.9   961.0    0.00 
 245    0:30   0.00   62.4    97    6.5   122     7.7   961.0    0.00 
 245    0:40   0.00   62.3    98    6.3   125     7.6   960.9    0.00 
 245    0:50   0.00   62.3    99    5.7   135     7.4   960.9    0.00 
 245    1:00   0.00   62.3    99    5.9   141     8.7   961.0    0.00 
 245    1:10   0.00   62.3    99    6.8   148     9.0   961.0    0.00 
 245    1:20   0.00   61.9    99    5.7   145     8.4   961.0    0.00 
 245    1:30   0.00   61.4    99    7.7   132     8.8   961.0    0.00 
 245    1:40   0.00   61.4    99    6.3   125     7.3   961.0    0.00 
 245    1:50   0.00   61.4    99    6.6   120     8.3   961.0    0.00 
 245    2:00   0.00   61.5    98    5.2   124     8.1   961.1    0.00 
 245    2:10   0.00   61.4    99    5.4   140     8.8   961.1    0.00 
 245    2:20   0.00   61.6    99    7.1   149     9.3   961.0    0.00 
 245    2:30   0.00   61.5    99    7.2   142    11.1   961.0    0.00 
 245    2:40   0.00   61.7    99    5.3   151     9.5   961.0    0.00 
 245    2:50   0.00   61.8    99    5.2   144     8.7   961.1    0.00 
 245    3:00   0.00   61.7    99    5.6   143    10.2   961.2    0.00 
 245    3:10   0.00   61.6   100    3.1   139     7.7   961.3    0.00 
 245    3:20   0.00   61.6    99    2.9   116     5.8   961.4    0.00 
 245    3:30   0.00   61.4    99    3.6    99     7.2   961.4    0.00 
 245    3:40   0.00   61.2    99    6.0    91    10.9   961.3    0.00 
 245    3:50   0.00   60.9    99    6.0    87    11.8   961.4    0.00 
 245    4:00   0.00   60.9    99    8.0    99    11.3   961.5    0.00 
 245    4:10   0.00   60.9    99    9.1   105    14.7   961.6    0.00 
 245    4:20   0.00   60.9    99    9.6   102    15.1   961.7    0.00 
 245    4:30   0.00   60.9    99    8.5   109    13.2   961.7    0.00 
 245    4:40   0.00   60.9    99    8.6   108    15.4   961.8    0.00 
 245    4:50   0.00   60.7    99    8.0   103    13.4   961.9    0.00 
 245    5:00   0.00   60.4    98    8.0   103    11.8   961.9    0.00 
 245    5:10   0.00   60.2    97    7.5   108    11.5   962.0    0.00 
 245    5:20   0.00   60.1    96    8.1   111    11.5   962.0    0.00 
 245    5:30   0.00   60.3    96    6.3   117    12.3   962.1    0.00 
 245    5:40   0.00   60.5    96    6.3   123    11.2   962.2    0.00 

Return to Valley Peak, Santa Cruz Island Reserve graphs page.


Western Regional Climate Center,wrcc@dri.edu